SLI1452 MMMX-MMZH
Flight info
| Callsign | SLI1452 |
|---|---|
| Flight time | 0h 43m |
| Altitude | 31000 |
| Route | TEVOS2A TEVOS DCT AVURO AVURO2F |
| Aircraft | E190/M-SDE2E3FGHIRWXY/L |
Departure
| Time | 2026-05-04 19:02 |
|---|---|
| Airport | Mexico City Benito Juárez International Airport (MMMX) |
Arrival
| Time | 2026-05-04 19:45 |
|---|---|
| Airport | Ixtapa-Zihuatanejo International Airport (MMZH) |
| Time | Latitude | Longitude | Altitude | Speed | Heading |
|---|---|---|---|---|---|
| 2026-05-04 18:41 | 19.42209 | -99.08090 | 7345 ft | 0 kts | 52° |
| 2026-05-04 18:53 | 19.42200 | -99.08099 | 7345 ft | 2 kts | 32° |
| 2026-05-04 18:53 | 19.42186 | -99.08105 | 7345 ft | 2 kts | 8° |
| 2026-05-04 18:53 | 19.42172 | -99.08105 | 7345 ft | 2 kts | 345° |
| 2026-05-04 18:53 | 19.42158 | -99.08098 | 7345 ft | 2 kts | 322° |
| 2026-05-04 18:54 | 19.42149 | -99.08087 | 7345 ft | 2 kts | 301° |
| 2026-05-04 18:54 | 19.42146 | -99.08082 | 7345 ft | 0 kts | 300° |
| 2026-05-04 18:57 | 19.42154 | -99.08098 | 7345 ft | 5 kts | 300° |
| 2026-05-04 18:57 | 19.42188 | -99.08157 | 7345 ft | 13 kts | 301° |
| 2026-05-04 18:58 | 19.42277 | -99.08200 | 7345 ft | 17 kts | 6° |
| 2026-05-04 18:58 | 19.42399 | -99.08215 | 7345 ft | 16 kts | 334° |
| 2026-05-04 18:58 | 19.42489 | -99.08275 | 7346 ft | 14 kts | 329° |
| 2026-05-04 18:58 | 19.42564 | -99.08342 | 7346 ft | 15 kts | 298° |
| 2026-05-04 18:59 | 19.42614 | -99.08468 | 7345 ft | 21 kts | 293° |
| 2026-05-04 18:59 | 19.42668 | -99.08618 | 7343 ft | 22 kts | 279° |
| 2026-05-04 18:59 | 19.42681 | -99.08786 | 7340 ft | 22 kts | 274° |
| 2026-05-04 18:59 | 19.42693 | -99.08940 | 7338 ft | 17 kts | 274° |
| 2026-05-04 19:00 | 19.42717 | -99.09061 | 7337 ft | 14 kts | 323° |
| 2026-05-04 19:00 | 19.42776 | -99.09022 | 7338 ft | 8 kts | 59° |
| 2026-05-04 19:00 | 19.42799 | -99.08980 | 7339 ft | 4 kts | 59° |
| 2026-05-04 19:00 | 19.42811 | -99.08959 | 7340 ft | 1 kts | 59° |
| 2026-05-04 19:01 | 19.42813 | -99.08955 | 7340 ft | 0 kts | 59° |
| 2026-05-04 19:01 | 19.42858 | -99.08875 | 7342 ft | 46 kts | 59° |
| 2026-05-04 19:01 | 19.43158 | -99.08342 | 7356 ft | 119 kts | 59° |
| 2026-05-04 19:01 | 19.43693 | -99.07394 | 7343 ft | 180 kts | 58° |
| 2026-05-04 19:02 | 19.44408 | -99.06130 | 7503 ft | 211 kts | 58° |
| 2026-05-04 19:02 | 19.45202 | -99.04761 | 8121 ft | 222 kts | 58° |
| 2026-05-04 19:02 | 19.45948 | -99.03476 | 9264 ft | 201 kts | 57° |
| 2026-05-04 19:02 | 19.46660 | -99.02235 | 10065 ft | 197 kts | 58° |
| 2026-05-04 19:03 | 19.47311 | -99.00970 | 10639 ft | 204 kts | 64° |
| 2026-05-04 19:03 | 19.47807 | -98.99550 | 11262 ft | 204 kts | 73° |
| 2026-05-04 19:03 | 19.47982 | -98.98093 | 11837 ft | 211 kts | 93° |
| 2026-05-04 19:03 | 19.47605 | -98.96549 | 12318 ft | 218 kts | 116° |
| 2026-05-04 19:04 | 19.46718 | -98.95202 | 12655 ft | 239 kts | 133° |
| 2026-05-04 19:04 | 19.45490 | -98.93911 | 12997 ft | 257 kts | 135° |
| 2026-05-04 19:04 | 19.44197 | -98.92586 | 13680 ft | 258 kts | 135° |
| 2026-05-04 19:04 | 19.42876 | -98.91281 | 14296 ft | 266 kts | 136° |
| 2026-05-04 19:05 | 19.41473 | -98.89982 | 15001 ft | 264 kts | 139° |
| 2026-05-04 19:05 | 19.40089 | -98.88755 | 15865 ft | 257 kts | 136° |
| 2026-05-04 19:05 | 19.38744 | -98.87564 | 16592 ft | 259 kts | 138° |
| 2026-05-04 19:05 | 19.37315 | -98.86343 | 17030 ft | 271 kts | 137° |
| 2026-05-04 19:06 | 19.35810 | -98.85072 | 17488 ft | 283 kts | 138° |
| 2026-05-04 19:06 | 19.34226 | -98.83736 | 17963 ft | 296 kts | 142° |
| 2026-05-04 19:06 | 19.32268 | -98.82965 | 18461 ft | 309 kts | 173° |
| 2026-05-04 19:06 | 19.30102 | -98.82828 | 18957 ft | 321 kts | 176° |
| 2026-05-04 19:07 | 19.27812 | -98.82717 | 19417 ft | 333 kts | 176° |
| 2026-05-04 19:07 | 19.25449 | -98.82605 | 19876 ft | 346 kts | 176° |
| 2026-05-04 19:07 | 19.22993 | -98.82493 | 20329 ft | 359 kts | 176° |
| 2026-05-04 19:07 | 19.20444 | -98.82376 | 20792 ft | 372 kts | 178° |
| 2026-05-04 19:08 | 19.17834 | -98.82526 | 21259 ft | 384 kts | 182° |
| 2026-05-04 19:08 | 19.15094 | -98.82733 | 21715 ft | 397 kts | 183° |
| 2026-05-04 19:08 | 19.12333 | -98.82945 | 22149 ft | 398 kts | 183° |
| 2026-05-04 19:08 | 19.09560 | -98.83162 | 22603 ft | 395 kts | 183° |
| 2026-05-04 19:09 | 19.06816 | -98.83373 | 23078 ft | 403 kts | 183° |
| 2026-05-04 19:09 | 19.04005 | -98.83593 | 23559 ft | 408 kts | 183° |
| 2026-05-04 19:09 | 19.01159 | -98.83811 | 24121 ft | 411 kts | 183° |
| 2026-05-04 19:09 | 18.98265 | -98.84037 | 24683 ft | 414 kts | 183° |
| 2026-05-04 19:10 | 18.95382 | -98.84257 | 25178 ft | 418 kts | 183° |
| 2026-05-04 19:10 | 18.92479 | -98.84602 | 25752 ft | 420 kts | 187° |
| 2026-05-04 19:10 | 18.89603 | -98.85056 | 26306 ft | 421 kts | 187° |
| 2026-05-04 19:10 | 18.86679 | -98.85520 | 26858 ft | 422 kts | 187° |
| 2026-05-04 19:11 | 18.83753 | -98.85985 | 27414 ft | 422 kts | 187° |
| 2026-05-04 19:11 | 18.80874 | -98.86441 | 27955 ft | 422 kts | 187° |
| 2026-05-04 19:11 | 18.77962 | -98.86900 | 28505 ft | 420 kts | 187° |
| 2026-05-04 19:11 | 18.75044 | -98.87358 | 29067 ft | 419 kts | 187° |
| 2026-05-04 19:12 | 18.72151 | -98.87801 | 29371 ft | 425 kts | 187° |
| 2026-05-04 19:12 | 18.66139 | -98.88716 | 29403 ft | 449 kts | 187° |
| 2026-05-04 19:12 | 18.62994 | -98.89194 | 29377 ft | 460 kts | 187° |
| 2026-05-04 19:13 | 18.59804 | -98.89679 | 29358 ft | 469 kts | 187° |
| 2026-05-04 19:13 | 18.53254 | -98.90668 | 29475 ft | 475 kts | 187° |
| 2026-05-04 19:14 | 18.46793 | -98.91638 | 29667 ft | 460 kts | 187° |
| 2026-05-04 19:14 | 18.43665 | -98.92107 | 30101 ft | 449 kts | 187° |
| 2026-05-04 19:14 | 18.40598 | -98.92575 | 30514 ft | 439 kts | 187° |
| 2026-05-04 19:14 | 18.37596 | -98.93006 | 30938 ft | 430 kts | 187° |
| 2026-05-04 19:15 | 18.34639 | -98.93484 | 31170 ft | 426 kts | 192° |
| 2026-05-04 19:15 | 18.31954 | -98.94674 | 31245 ft | 418 kts | 217° |
| 2026-05-04 19:15 | 18.29803 | -98.96733 | 31232 ft | 417 kts | 227° |
| 2026-05-04 19:16 | 18.25783 | -99.01131 | 31196 ft | 421 kts | 229° |
| 2026-05-04 19:16 | 18.21771 | -99.05653 | 31191 ft | 424 kts | 229° |
| 2026-05-04 19:17 | 18.17715 | -99.10226 | 31189 ft | 427 kts | 229° |
| 2026-05-04 19:17 | 18.13680 | -99.14777 | 31169 ft | 429 kts | 229° |
| 2026-05-04 19:18 | 18.09575 | -99.19430 | 31177 ft | 431 kts | 229° |
| 2026-05-04 19:18 | 18.05481 | -99.24071 | 31156 ft | 432 kts | 229° |
| 2026-05-04 19:19 | 18.01390 | -99.28724 | 31146 ft | 434 kts | 229° |
| 2026-05-04 19:19 | 17.97296 | -99.33381 | 31142 ft | 434 kts | 229° |
| 2026-05-04 19:20 | 17.93198 | -99.38050 | 31157 ft | 435 kts | 229° |
| 2026-05-04 19:20 | 17.89109 | -99.42723 | 31170 ft | 435 kts | 229° |
| 2026-05-04 19:21 | 17.85029 | -99.47405 | 31182 ft | 434 kts | 229° |
| 2026-05-04 19:21 | 17.80942 | -99.52100 | 31200 ft | 434 kts | 229° |
| 2026-05-04 19:22 | 17.76880 | -99.56778 | 31225 ft | 433 kts | 229° |
| 2026-05-04 19:22 | 17.72823 | -99.61455 | 31243 ft | 433 kts | 229° |
| 2026-05-04 19:23 | 17.68792 | -99.66123 | 31239 ft | 433 kts | 232° |
| 2026-05-04 19:23 | 17.67202 | -99.68776 | 31306 ft | 427 kts | 243° |
| 2026-05-04 19:23 | 17.65778 | -99.71516 | 31247 ft | 428 kts | 243° |
| 2026-05-04 19:24 | 17.62917 | -99.77051 | 31265 ft | 431 kts | 243° |
| 2026-05-04 19:24 | 17.60074 | -99.82584 | 31263 ft | 435 kts | 243° |
| 2026-05-04 19:25 | 17.57203 | -99.88171 | 31272 ft | 437 kts | 243° |
| 2026-05-04 19:25 | 17.54309 | -99.93825 | 31285 ft | 438 kts | 243° |
| 2026-05-04 19:26 | 17.51435 | -99.99461 | 31308 ft | 439 kts | 243° |
| 2026-05-04 19:26 | 17.48548 | -100.05114 | 31322 ft | 439 kts | 244° |
| 2026-05-04 19:27 | 17.45767 | -100.10789 | 30938 ft | 440 kts | 244° |
| 2026-05-04 19:27 | 17.44382 | -100.13616 | 30525 ft | 434 kts | 244° |
| 2026-05-04 19:27 | 17.43020 | -100.16389 | 30104 ft | 428 kts | 244° |
| 2026-05-04 19:27 | 17.41660 | -100.19150 | 29682 ft | 424 kts | 244° |
| 2026-05-04 19:28 | 17.40321 | -100.21858 | 29265 ft | 419 kts | 244° |
| 2026-05-04 19:28 | 17.38974 | -100.24567 | 28835 ft | 412 kts | 245° |
| 2026-05-04 19:28 | 17.37696 | -100.27187 | 28412 ft | 405 kts | 246° |
| 2026-05-04 19:28 | 17.36482 | -100.29845 | 27998 ft | 398 kts | 246° |
| 2026-05-04 19:29 | 17.35309 | -100.32422 | 27582 ft | 391 kts | 246° |
| 2026-05-04 19:29 | 17.34158 | -100.34959 | 27170 ft | 385 kts | 246° |
| 2026-05-04 19:29 | 17.33024 | -100.37466 | 26756 ft | 379 kts | 247° |
| 2026-05-04 19:29 | 17.31906 | -100.39941 | 26340 ft | 373 kts | 246° |
| 2026-05-04 19:30 | 17.30810 | -100.42384 | 25929 ft | 367 kts | 246° |
| 2026-05-04 19:30 | 17.29734 | -100.44793 | 25521 ft | 362 kts | 246° |
| 2026-05-04 19:30 | 17.28695 | -100.47125 | 25121 ft | 357 kts | 246° |
| 2026-05-04 19:30 | 17.27654 | -100.49473 | 24710 ft | 351 kts | 247° |
| 2026-05-04 19:31 | 17.26643 | -100.51765 | 24307 ft | 348 kts | 247° |
| 2026-05-04 19:31 | 17.25724 | -100.54117 | 23933 ft | 351 kts | 253° |
| 2026-05-04 19:31 | 17.24958 | -100.56538 | 23567 ft | 355 kts | 253° |
| 2026-05-04 19:31 | 17.24185 | -100.59018 | 23180 ft | 358 kts | 253° |
| 2026-05-04 19:32 | 17.23421 | -100.61489 | 22807 ft | 362 kts | 253° |
| 2026-05-04 19:32 | 17.22653 | -100.63992 | 22425 ft | 365 kts | 253° |
| 2026-05-04 19:32 | 17.22099 | -100.66588 | 22028 ft | 364 kts | 274° |
| 2026-05-04 19:32 | 17.22569 | -100.69135 | 21698 ft | 357 kts | 290° |
| 2026-05-04 19:33 | 17.23366 | -100.71587 | 21222 ft | 359 kts | 292° |
| 2026-05-04 19:33 | 17.24200 | -100.74047 | 20756 ft | 359 kts | 292° |
| 2026-05-04 19:33 | 17.25062 | -100.76511 | 20222 ft | 360 kts | 293° |
| 2026-05-04 19:33 | 17.25948 | -100.78944 | 19671 ft | 360 kts | 293° |
| 2026-05-04 19:34 | 17.26842 | -100.81389 | 19117 ft | 361 kts | 294° |
| 2026-05-04 19:34 | 17.27738 | -100.83810 | 18595 ft | 361 kts | 294° |
| 2026-05-04 19:34 | 17.28647 | -100.86249 | 18071 ft | 361 kts | 293° |
| 2026-05-04 19:34 | 17.29581 | -100.88715 | 17549 ft | 361 kts | 293° |
| 2026-05-04 19:35 | 17.30496 | -100.91132 | 16959 ft | 361 kts | 293° |
| 2026-05-04 19:35 | 17.31433 | -100.93576 | 16331 ft | 360 kts | 293° |
| 2026-05-04 19:35 | 17.32341 | -100.95935 | 15600 ft | 342 kts | 294° |
| 2026-05-04 19:35 | 17.33198 | -100.98159 | 14928 ft | 321 kts | 293° |
| 2026-05-04 19:36 | 17.34011 | -101.00266 | 14226 ft | 305 kts | 293° |
| 2026-05-04 19:36 | 17.34781 | -101.02258 | 13514 ft | 293 kts | 293° |
| 2026-05-04 19:36 | 17.35534 | -101.04205 | 12800 ft | 282 kts | 293° |
| 2026-05-04 19:36 | 17.36257 | -101.06048 | 12149 ft | 274 kts | 294° |
| 2026-05-04 19:37 | 17.36966 | -101.07863 | 11452 ft | 269 kts | 294° |
| 2026-05-04 19:37 | 17.37674 | -101.09661 | 10697 ft | 265 kts | 294° |
| 2026-05-04 19:37 | 17.38365 | -101.11409 | 9968 ft | 261 kts | 294° |
| 2026-05-04 19:37 | 17.39052 | -101.13152 | 9166 ft | 258 kts | 294° |
| 2026-05-04 19:38 | 17.39730 | -101.14848 | 8387 ft | 255 kts | 294° |
| 2026-05-04 19:38 | 17.40416 | -101.16558 | 7610 ft | 253 kts | 294° |
| 2026-05-04 19:38 | 17.41131 | -101.18208 | 6885 ft | 250 kts | 299° |
| 2026-05-04 19:38 | 17.41943 | -101.19810 | 6464 ft | 253 kts | 299° |
| 2026-05-04 19:39 | 17.42770 | -101.21425 | 5740 ft | 248 kts | 299° |
| 2026-05-04 19:39 | 17.43739 | -101.22823 | 5164 ft | 239 kts | 330° |
| 2026-05-04 19:39 | 17.45242 | -101.23423 | 5038 ft | 228 kts | 344° |
| 2026-05-04 19:39 | 17.46810 | -101.23891 | 5010 ft | 240 kts | 345° |
| 2026-05-04 19:40 | 17.48444 | -101.24373 | 4967 ft | 243 kts | 345° |
| 2026-05-04 19:40 | 17.50024 | -101.24837 | 4936 ft | 230 kts | 345° |
| 2026-05-04 19:40 | 17.51518 | -101.25362 | 4757 ft | 222 kts | 326° |
| 2026-05-04 19:40 | 17.52683 | -101.26372 | 4605 ft | 213 kts | 319° |
| 2026-05-04 19:41 | 17.53776 | -101.27377 | 4185 ft | 207 kts | 319° |
| 2026-05-04 19:41 | 17.54831 | -101.28348 | 3830 ft | 193 kts | 319° |
| 2026-05-04 19:41 | 17.55821 | -101.29262 | 3407 ft | 186 kts | 319° |
| 2026-05-04 19:41 | 17.56771 | -101.30134 | 3098 ft | 176 kts | 319° |
| 2026-05-04 19:42 | 17.57683 | -101.30971 | 2823 ft | 174 kts | 317° |
| 2026-05-04 19:42 | 17.58558 | -101.31844 | 2521 ft | 173 kts | 316° |
| 2026-05-04 19:42 | 17.59288 | -101.32833 | 2205 ft | 172 kts | 284° |
| 2026-05-04 19:42 | 17.59467 | -101.34057 | 2206 ft | 167 kts | 278° |
| 2026-05-04 19:43 | 17.59608 | -101.35244 | 2220 ft | 165 kts | 277° |
| 2026-05-04 19:43 | 17.59724 | -101.36443 | 2309 ft | 162 kts | 277° |
| 2026-05-04 19:43 | 17.59819 | -101.37609 | 2075 ft | 162 kts | 275° |
| 2026-05-04 19:43 | 17.59902 | -101.38802 | 1749 ft | 165 kts | 275° |
| 2026-05-04 19:44 | 17.59952 | -101.39970 | 1361 ft | 159 kts | 274° |
| 2026-05-04 19:44 | 17.59992 | -101.41094 | 984 ft | 152 kts | 272° |
| 2026-05-04 19:44 | 17.60033 | -101.42172 | 639 ft | 147 kts | 272° |
| 2026-05-04 19:44 | 17.60075 | -101.43246 | 414 ft | 144 kts | 271° |
| 2026-05-04 19:45 | 17.60115 | -101.44357 | 227 ft | 157 kts | 271° |
| 2026-05-04 19:45 | 17.60146 | -101.45479 | 62 ft | 149 kts | 270° |
| 2026-05-04 19:45 | 17.60167 | -101.46413 | 48 ft | 96 kts | 271° |
| 2026-05-04 19:45 | 17.60179 | -101.46860 | 53 ft | 27 kts | 275° |
| 2026-05-04 19:46 | 17.60195 | -101.46904 | 53 ft | 4 kts | 42° |
| 2026-05-04 19:46 | 17.60196 | -101.46826 | 53 ft | 20 kts | 87° |
| 2026-05-04 19:46 | 17.60274 | -101.46641 | 53 ft | 31 kts | 63° |
| 2026-05-04 19:46 | 17.60403 | -101.46463 | 54 ft | 30 kts | 6° |
| 2026-05-04 19:47 | 17.60488 | -101.46365 | 54 ft | 11 kts | 87° |
| 2026-05-04 19:47 | 17.60528 | -101.46334 | 54 ft | 6 kts | 4° |